createdAt,value
2023-05-07T04:35:45.619Z,18.25
2023-05-07T04:36:49.137Z,18.91
2023-05-07T04:37:51.825Z,18.67
2023-05-07T04:38:54.918Z,17.63
2023-05-07T04:39:56.941Z,19.08
2023-05-07T04:41:05.219Z,17.95
2023-05-07T04:42:11.359Z,18.44
2023-05-07T04:43:14.357Z,18.81
2023-05-07T04:44:21.937Z,18.53
2023-05-07T04:45:24.387Z,18.09
2023-05-07T04:46:32.405Z,18.23
2023-05-07T04:47:35.674Z,18.96
2023-05-07T04:48:40.008Z,19.34
2023-05-07T04:49:42.988Z,18.13
2023-05-07T04:50:58.804Z,17.27
2023-05-07T04:52:02.462Z,17.08
2023-05-07T04:53:04.721Z,16.76
2023-05-07T04:54:07.343Z,17.59
2023-05-07T04:55:09.966Z,17.86
2023-05-07T04:56:19.687Z,16.49
2023-05-07T04:57:23.485Z,19.00
2023-05-07T04:58:26.243Z,17.93
2023-05-07T04:59:29.584Z,16.84
2023-05-07T05:00:32.123Z,15.41
2023-05-07T05:17:03.204Z,18.86
2023-05-07T05:24:35.599Z,20.07
2023-05-07T05:25:40.481Z,20.05
2023-05-07T05:27:16.331Z,18.75
2023-05-07T05:28:18.407Z,18.46
2023-05-07T05:29:20.540Z,19.10
2023-05-07T05:30:23.229Z,16.27
2023-05-07T05:31:32.356Z,16.24
2023-05-07T05:32:34.881Z,15.54
2023-05-07T05:33:37.483Z,17.47
2023-05-07T05:34:42.082Z,16.97
2023-05-07T05:35:44.128Z,17.50
2023-05-07T05:37:17.419Z,18.72
2023-05-07T05:38:20.100Z,19.20
2023-05-07T05:39:24.419Z,19.84
2023-05-07T05:40:27.025Z,19.43
2023-05-07T05:41:31.120Z,19.94
2023-05-07T05:42:33.935Z,18.80
2023-05-07T05:43:36.009Z,18.75
2023-05-07T05:44:38.275Z,19.57
2023-05-07T05:45:44.733Z,19.21
2023-05-07T05:46:53.610Z,17.19
2023-05-07T05:49:26.750Z,17.46
2023-05-07T05:50:29.081Z,18.46
2023-05-07T05:51:57.742Z,19.21
2023-05-07T05:53:04.815Z,20.08
2023-05-07T05:54:14.319Z,17.15
2023-05-07T05:55:17.635Z,17.37
2023-05-07T05:56:24.533Z,19.03
2023-05-07T05:57:28.637Z,17.90
2023-05-07T05:58:32.035Z,16.43
2023-05-07T05:59:39.316Z,18.16
2023-05-07T06:00:42.294Z,17.14
2023-05-07T06:02:13.102Z,16.07
2023-05-07T06:03:31.379Z,17.86
2023-05-07T06:04:55.408Z,19.49
2023-05-07T06:05:59.435Z,18.64
2023-05-07T06:07:06.188Z,19.08
2023-05-07T06:08:07.986Z,18.70
2023-05-07T06:09:11.129Z,20.40
2023-05-07T06:10:17.950Z,20.52
2023-05-07T06:11:20.306Z,21.64
2023-05-07T06:12:22.987Z,20.49
2023-05-07T06:13:26.780Z,20.94
2023-05-07T06:14:29.080Z,19.10
2023-05-07T06:15:32.268Z,17.73
2023-05-07T06:16:43.869Z,17.75
2023-05-07T06:17:48.716Z,19.04
2023-05-07T06:18:52.052Z,18.91
2023-05-07T06:19:56.295Z,19.60
2023-05-07T06:21:00.782Z,19.81
2023-05-07T06:22:08.889Z,19.30
2023-05-07T06:23:20.022Z,19.62
2023-05-07T06:24:25.922Z,20.88
2023-05-07T06:25:30.602Z,19.70
2023-05-07T06:26:38.736Z,20.64
2023-05-07T06:27:40.924Z,19.63
2023-05-07T06:28:54.123Z,18.11
2023-05-07T06:30:02.599Z,16.77
2023-05-07T06:32:16.087Z,16.49
2023-05-07T06:33:20.974Z,16.66
2023-05-07T06:34:26.644Z,15.74
2023-05-07T06:35:29.068Z,15.91
2023-05-07T06:36:36.548Z,16.19
2023-05-07T06:37:47.252Z,16.43
2023-05-07T06:39:28.003Z,17.72
2023-05-07T06:41:00.211Z,18.36
2023-05-07T06:42:10.429Z,19.16
2023-05-07T06:43:18.778Z,18.08
2023-05-07T06:44:31.793Z,18.34
2023-05-07T06:45:47.211Z,19.80
2023-05-07T06:46:54.574Z,17.91
2023-05-07T06:48:02.929Z,17.05
2023-05-07T06:50:21.673Z,16.28
2023-05-07T06:51:32.818Z,16.50
2023-05-07T06:56:49.131Z,18.53
2023-05-07T06:58:08.517Z,19.24
2023-05-07T06:59:34.353Z,17.92
2023-05-07T07:00:51.163Z,16.23
2023-05-07T07:02:34.031Z,15.23
2023-05-07T07:03:40.373Z,15.46
2023-05-07T07:04:52.976Z,15.01
2023-05-07T07:05:56.257Z,15.08
2023-05-07T07:07:06.854Z,15.42
2023-05-07T07:08:11.733Z,13.81
2023-05-07T07:09:14.384Z,14.80
2023-05-07T07:10:17.758Z,13.99
2023-05-07T07:11:22.159Z,13.75
2023-05-07T07:16:10.934Z,13.61
2023-05-07T07:21:52.386Z,18.25
2023-05-07T07:22:55.318Z,18.06
2023-05-07T07:23:57.319Z,17.94
2023-05-07T07:25:02.220Z,16.54
2023-05-07T07:26:05.178Z,17.11
2023-05-07T07:27:09.372Z,15.58
2023-05-07T07:28:12.695Z,15.01
2023-05-07T07:29:15.157Z,16.16
2023-05-07T07:30:19.302Z,16.37
2023-05-07T07:31:23.955Z,17.55
2023-05-07T07:32:27.397Z,18.48
2023-05-07T07:33:30.043Z,18.48
2023-05-07T07:34:32.622Z,18.76
2023-05-07T07:35:39.943Z,19.40
2023-05-07T07:36:46.669Z,20.10
2023-05-07T07:37:52.265Z,18.59
2023-05-07T07:38:54.965Z,19.04
2023-05-07T07:39:56.952Z,19.05
2023-05-07T07:40:58.938Z,19.18
2023-05-07T07:42:02.314Z,17.84
2023-05-07T07:43:06.124Z,16.52
2023-05-07T07:44:09.801Z,15.11
2023-05-07T07:45:13.555Z,13.75
2023-05-07T07:46:20.142Z,13.66
2023-05-07T07:47:47.369Z,13.90
2023-05-07T07:48:49.731Z,13.26
2023-05-07T07:58:35.479Z,12.22
2023-05-07T07:59:38.425Z,12.20
2023-05-07T08:00:46.091Z,11.93
2023-05-07T08:05:45.758Z,13.43
2023-05-07T08:10:42.507Z,13.35
2023-05-07T08:15:45.234Z,12.98
